createdAt,value
2018-05-13T00:00:02.950Z,9.52
2018-05-13T00:02:30.374Z,10.73
2018-05-13T00:04:57.891Z,8.90
2018-05-13T00:07:26.083Z,10.38
2018-05-13T00:09:53.497Z,10.50
2018-05-13T00:12:21.013Z,9.27
2018-05-13T00:14:48.434Z,9.20
2018-05-13T00:17:16.025Z,10.45
2018-05-13T00:19:43.431Z,10.75
2018-05-13T00:22:10.862Z,10.00
2018-05-13T00:24:39.075Z,10.10
2018-05-13T00:27:06.501Z,10.10
2018-05-13T00:29:33.917Z,9.20
2018-05-13T00:32:01.337Z,10.05
2018-05-13T00:34:28.853Z,10.30
2018-05-13T00:36:56.269Z,9.93
2018-05-13T00:39:23.691Z,9.70
2018-05-13T00:41:51.109Z,10.25
2018-05-13T00:44:18.538Z,9.85
2018-05-13T00:46:45.968Z,9.18
2018-05-13T00:49:13.480Z,11.63
2018-05-13T00:51:41.657Z,9.88
2018-05-13T00:54:21.843Z,10.18
2018-05-13T00:56:49.267Z,11.12
2018-05-13T00:59:16.777Z,12.05
2018-05-13T01:01:44.196Z,9.90
2018-05-13T01:04:11.690Z,10.73
2018-05-13T01:06:39.882Z,11.20
2018-05-13T01:09:08.074Z,10.38
2018-05-13T01:11:36.256Z,11.00
2018-05-13T01:14:04.453Z,11.38
2018-05-13T01:16:31.877Z,12.00
2018-05-13T01:18:59.293Z,11.80
2018-05-13T01:21:26.719Z,11.25
2018-05-13T01:23:54.137Z,10.63
2018-05-13T01:26:21.557Z,10.95
2018-05-13T01:28:48.978Z,9.52
2018-05-13T01:31:16.451Z,9.98
2018-05-13T01:33:43.860Z,10.95
2018-05-13T01:36:11.281Z,10.00
2018-05-13T01:38:38.704Z,10.00
2018-05-13T01:41:06.129Z,9.70
2018-05-13T01:43:33.587Z,10.25
2018-05-13T01:46:01.089Z,9.20
2018-05-13T01:48:28.534Z,9.50
2018-05-13T01:50:55.951Z,10.00
2018-05-13T01:53:23.390Z,10.30
2018-05-13T01:55:50.847Z,10.93
2018-05-13T01:58:19.026Z,10.32
2018-05-13T02:00:46.512Z,9.82
2018-05-13T02:03:14.668Z,11.77
2018-05-13T02:05:42.844Z,11.57
2018-05-13T02:08:11.065Z,9.98
2018-05-13T02:10:38.482Z,12.18
2018-05-13T02:13:05.920Z,10.43
2018-05-13T02:15:33.368Z,10.95
2018-05-13T02:18:00.809Z,10.93
2018-05-13T02:20:28.994Z,10.85
2018-05-13T02:22:56.492Z,11.65
2018-05-13T02:25:23.916Z,10.90
2018-05-13T02:27:51.344Z,11.52
2018-05-13T02:30:18.766Z,10.00
2018-05-13T02:32:46.180Z,10.95
2018-05-13T02:35:13.602Z,10.82
2018-05-13T02:37:41.031Z,11.40
2018-05-13T02:40:08.449Z,11.80
2018-05-13T02:42:35.958Z,10.85
2018-05-13T02:45:04.124Z,10.82
2018-05-13T02:47:32.305Z,9.15
2018-05-13T02:50:00.517Z,9.45
2018-05-13T02:52:27.922Z,9.65
2018-05-13T02:54:55.337Z,10.60
2018-05-13T02:57:23.543Z,10.50
2018-05-13T02:59:50.967Z,11.35
2018-05-13T03:02:19.113Z,11.88
2018-05-13T03:04:46.528Z,11.40
2018-05-13T03:07:13.966Z,12.68
2018-05-13T03:09:41.391Z,11.23
2018-05-13T03:12:08.807Z,12.35
2018-05-13T03:14:36.238Z,11.55
2018-05-13T03:17:03.681Z,12.60
2018-05-13T03:19:31.864Z,12.55
2018-05-13T03:22:00.062Z,13.02
2018-05-13T03:24:28.275Z,12.80
2018-05-13T03:26:55.701Z,14.18
2018-05-13T03:29:23.117Z,14.95
2018-05-13T03:31:50.534Z,14.27
2018-05-13T03:34:18.050Z,14.75
2018-05-13T03:36:45.465Z,14.75
2018-05-13T03:39:12.904Z,13.98
2018-05-13T03:41:40.316Z,14.93
2018-05-13T03:44:07.745Z,14.87
2018-05-13T03:46:35.193Z,15.40
2018-05-13T03:49:02.673Z,13.60
2018-05-13T03:51:30.085Z,12.32
2018-05-13T03:53:57.503Z,14.27
2018-05-13T03:56:24.921Z,13.35
2018-05-13T03:58:52.342Z,13.30
2018-05-13T04:01:19.765Z,13.95
2018-05-13T04:03:47.176Z,14.55
2018-05-13T04:06:14.601Z,13.95
2018-05-13T04:08:53.930Z,13.80
2018-05-13T04:11:33.185Z,12.60
2018-05-13T04:14:12.489Z,12.30
2018-05-13T04:16:39.903Z,13.00
2018-05-13T04:19:07.326Z,13.25
2018-05-13T04:21:34.742Z,13.10
2018-05-13T04:24:02.164Z,14.35
2018-05-13T04:26:29.572Z,12.77
2018-05-13T04:28:57.009Z,12.65
2018-05-13T04:31:24.428Z,13.00
2018-05-13T04:33:51.851Z,13.50
2018-05-13T04:36:19.265Z,12.23
2018-05-13T04:38:46.793Z,12.65
2018-05-13T04:41:14.961Z,12.23
2018-05-13T04:43:43.166Z,11.50
2018-05-13T04:46:10.637Z,13.20
2018-05-13T04:48:38.101Z,12.20
2018-05-13T04:51:05.574Z,11.77
2018-05-13T04:53:32.998Z,11.85
2018-05-13T04:56:00.415Z,11.10
2018-05-13T04:58:27.837Z,13.38
2018-05-13T05:00:55.254Z,11.27
2018-05-13T05:03:22.673Z,12.18
2018-05-13T05:05:50.098Z,10.55
2018-05-13T05:08:17.526Z,10.02
2018-05-13T05:10:45.749Z,10.50
2018-05-13T05:13:13.917Z,11.90
2018-05-13T05:15:41.402Z,11.00
2018-05-13T05:18:08.826Z,10.70
2018-05-13T05:20:36.346Z,10.13
2018-05-13T05:23:04.508Z,11.07
2018-05-13T05:25:32.720Z,11.05
2018-05-13T05:28:00.889Z,12.18
2018-05-13T05:30:29.093Z,10.85
2018-05-13T05:32:57.261Z,11.18
2018-05-13T05:35:25.441Z,12.63
2018-05-13T05:37:53.649Z,11.00
2018-05-13T05:40:21.073Z,10.65
2018-05-13T05:42:48.484Z,10.48
2018-05-13T05:45:15.926Z,10.52
2018-05-13T05:47:43.316Z,9.95
2018-05-13T05:50:10.777Z,10.23
2018-05-13T05:52:38.973Z,10.18
2018-05-13T05:55:07.176Z,10.65
2018-05-13T05:57:34.639Z,10.35
2018-05-13T06:00:02.057Z,10.45
2018-05-13T06:02:29.489Z,10.95
2018-05-13T06:04:56.950Z,9.90
2018-05-13T06:07:24.377Z,11.18
2018-05-13T06:09:51.790Z,10.55
2018-05-13T06:12:25.304Z,10.50
2018-05-13T06:14:52.722Z,9.70
2018-05-13T06:17:21.653Z,10.50
2018-05-13T06:19:49.837Z,10.05
2018-05-13T06:22:18.030Z,10.80
2018-05-13T06:24:46.217Z,10.10
2018-05-13T06:27:14.404Z,10.13
2018-05-13T06:29:42.590Z,8.88
2018-05-13T06:32:10.781Z,8.80
2018-05-13T06:34:38.963Z,8.10
2018-05-13T06:37:07.146Z,7.20
2018-05-13T06:39:35.386Z,6.90
2018-05-13T06:42:02.827Z,7.45
2018-05-13T06:44:30.236Z,6.60
2018-05-13T06:46:57.767Z,6.18
2018-05-13T06:49:25.177Z,6.40
2018-05-13T06:51:52.593Z,6.40
2018-05-13T06:54:20.774Z,8.02
2018-05-13T06:56:48.965Z,8.35
2018-05-13T06:59:17.146Z,8.80
2018-05-13T07:01:45.328Z,8.48
2018-05-13T07:04:13.512Z,7.78
2018-05-13T07:06:41.702Z,8.52
2018-05-13T07:09:09.909Z,9.68
2018-05-13T07:11:37.306Z,9.07
2018-05-13T07:14:04.723Z,9.05
2018-05-13T07:16:32.222Z,9.55
2018-05-13T07:18:59.568Z,10.43
2018-05-13T07:21:27.069Z,10.15
2018-05-13T07:23:54.476Z,8.75
2018-05-13T07:26:21.902Z,11.85
2018-05-13T07:28:49.377Z,11.18
2018-05-13T07:31:17.545Z,10.88
2018-05-13T07:33:45.724Z,11.23
2018-05-13T07:36:13.913Z,9.77
2018-05-13T07:38:42.117Z,10.30
2018-05-13T07:41:09.590Z,9.57
2018-05-13T07:43:37.001Z,9.48
2018-05-13T07:46:04.536Z,8.00
2018-05-13T07:48:32.697Z,7.90
2018-05-13T07:51:00.972Z,8.75
2018-05-13T07:53:29.061Z,8.38
2018-05-13T07:55:57.253Z,8.23
2018-05-13T07:58:25.429Z,8.93
2018-05-13T08:00:52.940Z,8.80
2018-05-13T08:03:20.516Z,8.88
2018-05-13T08:05:47.913Z,8.68
2018-05-13T08:08:15.351Z,8.25
2018-05-13T08:10:43.539Z,8.98
2018-05-13T08:13:10.951Z,9.35
2018-05-13T08:15:38.361Z,10.15
2018-05-13T08:18:05.777Z,9.70
2018-05-13T08:20:33.307Z,10.93
2018-05-13T08:23:01.414Z,9.45
2018-05-13T08:25:28.875Z,8.85
2018-05-13T08:27:57.046Z,8.43
2018-05-13T08:30:24.453Z,8.70
2018-05-13T08:32:51.899Z,8.40
2018-05-13T08:35:19.304Z,8.00
2018-05-13T08:37:46.797Z,7.40
2018-05-13T08:40:14.206Z,7.80
2018-05-13T08:42:42.393Z,6.87
2018-05-13T08:45:10.553Z,6.57
2018-05-13T08:47:38.747Z,6.40
2018-05-13T08:50:07.057Z,6.68
2018-05-13T08:52:35.216Z,7.10
2018-05-13T08:55:03.396Z,6.37
2018-05-13T08:57:31.576Z,7.35
2018-05-13T08:59:58.988Z,7.12
2018-05-13T09:02:26.457Z,6.68
2018-05-13T09:04:53.862Z,5.93
2018-05-13T09:07:21.276Z,7.28
2018-05-13T09:09:49.452Z,6.05
2018-05-13T09:12:17.641Z,6.85
2018-05-13T09:14:45.812Z,5.78
2018-05-13T09:17:13.233Z,5.80
2018-05-13T09:19:40.641Z,5.22
2018-05-13T09:22:08.066Z,5.75
2018-05-13T09:24:35.472Z,5.75
2018-05-13T09:27:02.889Z,5.32
2018-05-13T09:29:30.316Z,6.12
2018-05-13T09:31:57.725Z,6.00
2018-05-13T09:34:25.139Z,6.85
2018-05-13T09:36:52.558Z,6.10
2018-05-13T09:39:20.861Z,7.40
2018-05-13T09:44:24.864Z,6.90
2018-05-13T09:46:52.393Z,7.03
2018-05-13T09:49:19.788Z,7.10
2018-05-13T09:51:47.226Z,5.90
2018-05-13T09:54:14.632Z,6.20
2018-05-13T09:56:42.058Z,6.15
2018-05-13T09:59:09.465Z,5.75
2018-05-13T10:01:36.893Z,5.68
2018-05-13T10:04:04.375Z,6.10
2018-05-13T10:06:31.781Z,5.50
2018-05-13T10:08:59.192Z,5.20
2018-05-13T10:11:27.389Z,5.37
2018-05-13T10:13:54.874Z,5.85
2018-05-13T10:16:22.291Z,5.37
2018-05-13T10:18:49.697Z,4.60
2018-05-13T10:21:17.170Z,5.60
2018-05-13T10:23:44.582Z,4.75
2018-05-13T10:26:12.018Z,4.68
2018-05-13T10:28:39.417Z,6.10
2018-05-13T10:31:06.833Z,5.25
2018-05-13T10:33:35.009Z,5.25
2018-05-13T10:36:03.194Z,4.90
2018-05-13T10:38:30.622Z,4.35
2018-05-13T10:40:58.058Z,4.50
2018-05-13T10:43:25.539Z,4.68
2018-05-13T10:45:52.993Z,3.95
2018-05-13T10:48:20.418Z,4.65
2018-05-13T10:50:47.942Z,3.90
2018-05-13T10:53:15.350Z,3.60
2018-05-13T10:55:42.806Z,3.00
2018-05-13T10:58:10.217Z,4.12
2018-05-13T11:00:38.421Z,3.70
2018-05-13T11:03:06.597Z,3.20
2018-05-13T11:05:34.793Z,3.62
2018-05-13T11:08:02.964Z,4.03
2018-05-13T11:10:31.888Z,3.22
2018-05-13T11:13:00.076Z,3.92
2018-05-13T11:15:28.265Z,4.50
2018-05-13T11:17:56.440Z,4.05
2018-05-13T11:20:24.621Z,3.60
2018-05-13T11:22:52.835Z,4.05
2018-05-13T11:25:20.258Z,3.67
2018-05-13T11:27:47.671Z,3.55
2018-05-13T11:30:15.085Z,4.30
2018-05-13T11:32:42.492Z,3.75
2018-05-13T11:35:09.921Z,4.18
2018-05-13T11:37:37.352Z,4.65
2018-05-13T11:40:04.821Z,4.07
2018-05-13T11:42:32.300Z,4.10
2018-05-13T11:44:59.700Z,4.10
2018-05-13T11:47:27.137Z,4.10
2018-05-13T11:49:55.325Z,3.33
2018-05-13T11:52:23.511Z,3.75
2018-05-13T11:54:50.917Z,3.72
2018-05-13T11:57:18.340Z,3.53
2018-05-13T11:59:45.919Z,3.55
2018-05-13T12:02:14.170Z,3.90
2018-05-13T12:04:41.574Z,4.10
2018-05-13T12:07:08.994Z,4.55
2018-05-13T12:09:36.414Z,3.95
2018-05-13T12:12:03.829Z,4.30
2018-05-13T12:14:32.757Z,4.25
2018-05-13T12:17:00.929Z,4.05
2018-05-13T12:19:28.346Z,4.28
2018-05-13T12:21:55.814Z,4.35
2018-05-13T12:24:23.230Z,4.40
2018-05-13T12:26:51.471Z,4.45
2018-05-13T12:29:18.885Z,5.05
2018-05-13T12:31:46.295Z,4.45
2018-05-13T12:34:13.794Z,4.20
2018-05-13T12:36:41.252Z,5.05
2018-05-13T12:39:09.418Z,4.12
2018-05-13T12:41:37.597Z,4.55
2018-05-13T12:44:05.784Z,3.78
2018-05-13T12:46:34.046Z,4.20
2018-05-13T12:49:02.179Z,3.80
2018-05-13T12:51:29.594Z,3.70
2018-05-13T12:53:57.018Z,3.75
2018-05-13T12:56:24.500Z,3.58
2018-05-13T12:58:51.885Z,3.67
2018-05-13T13:01:19.302Z,3.60
2018-05-13T13:03:47.567Z,4.00
2018-05-13T13:06:15.035Z,4.47
2018-05-13T13:08:42.357Z,4.22
2018-05-13T13:11:09.778Z,3.92
2018-05-13T13:13:37.195Z,4.05
2018-05-13T13:16:04.615Z,4.20
2018-05-13T13:18:32.133Z,3.75
2018-05-13T13:20:59.544Z,4.65
2018-05-13T13:23:26.976Z,4.45
2018-05-13T13:25:54.462Z,4.72
2018-05-13T13:28:21.810Z,4.30
2018-05-13T13:30:49.248Z,4.25
2018-05-13T13:33:16.637Z,4.47
2018-05-13T13:35:44.058Z,3.90
2018-05-13T13:38:11.468Z,4.30
2018-05-13T13:40:39.654Z,4.40
2018-05-13T13:43:07.856Z,4.50
2018-05-13T13:45:35.294Z,4.10
2018-05-13T13:48:02.685Z,4.10
2018-05-13T13:50:30.160Z,3.97
2018-05-13T13:52:57.576Z,4.53
2018-05-13T13:55:24.996Z,4.37
2018-05-13T13:57:52.411Z,4.40
2018-05-13T14:00:19.826Z,3.92
2018-05-13T14:02:48.013Z,4.18
2018-05-13T14:05:16.187Z,3.87
2018-05-13T14:07:44.372Z,3.20
2018-05-13T14:10:11.780Z,4.05
2018-05-13T14:12:39.197Z,3.78
2018-05-13T14:15:06.608Z,4.10
2018-05-13T14:17:34.077Z,3.60
2018-05-13T14:20:01.596Z,3.40
2018-05-13T14:22:29.700Z,3.10
2018-05-13T14:24:57.137Z,3.15
2018-05-13T14:27:24.581Z,2.72
2018-05-13T14:29:51.994Z,3.12
2018-05-13T14:32:19.519Z,2.50
2018-05-13T14:34:46.924Z,2.70
2018-05-13T14:37:14.458Z,3.37
2018-05-13T14:39:42.005Z,2.87
2018-05-13T14:42:09.334Z,2.50
2018-05-13T14:44:36.754Z,2.42
2018-05-13T14:47:04.944Z,2.40
2018-05-13T14:49:32.368Z,2.70
2018-05-13T14:51:59.777Z,2.75
2018-05-13T14:54:27.978Z,2.90
2018-05-13T14:56:55.384Z,2.10
2018-05-13T14:59:22.809Z,2.70
2018-05-13T15:01:50.288Z,2.12
2018-05-13T15:04:17.701Z,2.30
2018-05-13T15:06:45.120Z,2.50
2018-05-13T15:09:12.593Z,2.60
2018-05-13T15:11:40.061Z,2.50
2018-05-13T15:14:07.474Z,2.90
2018-05-13T15:16:34.935Z,2.28
2018-05-13T15:19:03.065Z,1.90
2018-05-13T15:21:31.262Z,3.03
2018-05-13T15:23:59.449Z,2.47
2018-05-13T15:26:27.620Z,2.42
2018-05-13T15:28:55.813Z,2.33
2018-05-13T15:31:23.984Z,2.70
2018-05-13T15:33:51.394Z,2.45
2018-05-13T15:36:18.808Z,2.75
2018-05-13T15:38:46.216Z,2.50
2018-05-13T15:41:13.638Z,2.78
2018-05-13T15:43:41.049Z,2.12
2018-05-13T15:46:09.229Z,2.58
2018-05-13T15:48:37.428Z,2.40
2018-05-13T15:51:05.634Z,2.40
2018-05-13T15:53:33.037Z,2.65
2018-05-13T15:56:00.457Z,2.60
2018-05-13T15:58:28.634Z,2.95
2018-05-13T16:00:56.817Z,2.90
2018-05-13T16:03:24.992Z,2.42
2018-05-13T16:05:52.415Z,2.60
2018-05-13T16:08:19.821Z,3.03
2018-05-13T16:10:47.313Z,2.87
2018-05-13T16:13:15.492Z,2.95
2018-05-13T16:15:42.998Z,2.70
2018-05-13T16:18:10.409Z,2.60
2018-05-13T16:20:37.866Z,2.72
2018-05-13T16:23:05.252Z,2.40
2018-05-13T16:25:32.657Z,2.78
2018-05-13T16:28:00.833Z,2.58
2018-05-13T16:30:29.013Z,3.10
2018-05-13T16:32:56.434Z,3.03
2018-05-13T16:35:23.850Z,3.12
2018-05-13T16:37:51.355Z,3.30
2018-05-13T16:40:18.756Z,3.10
2018-05-13T16:42:46.173Z,3.40
2018-05-13T16:45:14.357Z,2.50
2018-05-13T16:47:42.558Z,4.07
2018-05-13T16:50:10.039Z,2.95
2018-05-13T16:52:37.451Z,3.20
2018-05-13T16:55:04.865Z,3.05
2018-05-13T16:57:32.337Z,2.95
2018-05-13T16:59:59.754Z,3.55
2018-05-13T17:02:27.253Z,2.60
2018-05-13T17:04:55.341Z,3.15
2018-05-13T17:07:23.531Z,3.00
2018-05-13T17:09:50.933Z,3.72
2018-05-13T17:12:18.352Z,3.00
2018-05-13T17:14:45.761Z,3.50
2018-05-13T17:17:13.274Z,3.25
2018-05-13T17:19:40.584Z,3.40
2018-05-13T17:22:08.781Z,3.58
2018-05-13T17:24:36.198Z,3.60
2018-05-13T17:27:03.612Z,3.10
2018-05-13T17:29:31.785Z,3.75
2018-05-13T17:31:59.969Z,3.65
2018-05-13T17:34:28.144Z,3.90
2018-05-13T17:36:55.567Z,4.18
2018-05-13T17:39:23.050Z,3.90
2018-05-13T17:41:50.393Z,3.97
2018-05-13T17:44:17.825Z,4.15
2018-05-13T17:46:45.337Z,4.75
2018-05-13T17:49:12.736Z,4.43
2018-05-13T17:51:40.149Z,4.55
2018-05-13T17:54:08.439Z,5.10
2018-05-13T17:56:35.835Z,5.07
2018-05-13T17:59:03.407Z,5.70
2018-05-13T18:01:31.569Z,5.78
2018-05-13T18:03:59.780Z,6.00
2018-05-13T18:06:27.936Z,6.53
2018-05-13T18:08:55.368Z,5.50
2018-05-13T18:11:22.808Z,7.22
2018-05-13T18:13:50.977Z,5.95
2018-05-13T18:16:19.150Z,7.60
2018-05-13T18:18:47.366Z,7.35
2018-05-13T18:21:14.828Z,7.30
2018-05-13T18:23:42.410Z,7.70
2018-05-13T18:26:10.572Z,8.77
2018-05-13T18:28:38.756Z,9.57
2018-05-13T18:31:07.170Z,9.40
2018-05-13T18:33:34.493Z,9.27
2018-05-13T18:36:01.904Z,9.00
2018-05-13T18:38:29.329Z,10.07
2018-05-13T18:40:56.750Z,10.55
2018-05-13T18:43:24.172Z,9.45
2018-05-13T18:45:53.102Z,10.73
2018-05-13T18:48:21.323Z,10.65
2018-05-13T18:50:48.737Z,10.60
2018-05-13T18:53:16.161Z,11.20
2018-05-13T18:55:43.586Z,9.98
2018-05-13T18:58:11.805Z,10.43
2018-05-13T19:00:39.268Z,11.65
2018-05-13T19:03:06.689Z,9.55
2018-05-13T19:05:34.115Z,10.80
2018-05-13T19:08:02.563Z,12.13
2018-05-13T19:10:30.042Z,11.30
2018-05-13T19:12:57.457Z,11.15
2018-05-13T19:15:24.883Z,12.27
2018-05-13T19:17:53.867Z,11.60
2018-05-13T19:20:21.289Z,12.80
2018-05-13T19:22:48.722Z,13.05
2018-05-13T19:25:16.229Z,14.43
2018-05-13T19:27:44.549Z,12.55
2018-05-13T19:30:11.966Z,14.02
2018-05-13T19:32:40.699Z,15.20
2018-05-13T19:35:08.125Z,13.02
2018-05-13T19:37:35.545Z,12.40
2018-05-13T19:40:03.102Z,13.18
2018-05-13T19:42:31.270Z,12.00
2018-05-13T19:44:59.454Z,12.70
2018-05-13T19:47:27.649Z,13.80
2018-05-13T19:49:55.850Z,11.77
2018-05-13T19:52:24.023Z,13.07
2018-05-13T19:54:51.446Z,11.50
2018-05-13T19:57:18.956Z,13.52
2018-05-13T19:59:47.149Z,13.73
2018-05-13T20:02:14.649Z,13.10
2018-05-13T20:04:42.083Z,13.60
2018-05-13T20:07:10.270Z,14.90
2018-05-13T20:09:37.765Z,14.25
2018-05-13T20:12:05.109Z,14.18
2018-05-13T20:14:33.363Z,13.80
2018-05-13T20:17:00.772Z,14.23
2018-05-13T20:19:28.253Z,13.00
2018-05-13T20:21:55.673Z,13.52
2018-05-13T20:24:23.117Z,13.52
2018-05-13T20:26:50.562Z,12.60
2018-05-13T20:29:18.037Z,12.52
2018-05-13T20:31:46.280Z,12.30
2018-05-13T20:34:13.710Z,11.98
2018-05-13T20:36:41.132Z,10.88
2018-05-13T20:39:09.322Z,9.35
2018-05-13T20:41:37.538Z,8.73
2018-05-13T20:44:05.701Z,8.48
2018-05-13T20:46:33.169Z,8.45
2018-05-13T20:49:01.383Z,9.75
2018-05-13T20:51:29.565Z,9.20
2018-05-13T20:53:56.990Z,10.73
2018-05-13T20:56:24.410Z,9.07
2018-05-13T20:58:51.837Z,10.02
2018-05-13T21:01:19.274Z,10.43
2018-05-13T21:03:46.712Z,8.50
2018-05-13T21:06:14.135Z,9.27
2018-05-13T21:08:41.662Z,10.18
2018-05-13T21:11:09.836Z,8.90
2018-05-13T21:13:37.314Z,9.35
2018-05-13T21:16:04.795Z,8.98
2018-05-13T21:18:32.148Z,9.20
2018-05-13T21:20:59.616Z,8.57
2018-05-13T21:23:27.098Z,8.60
2018-05-13T21:25:55.257Z,8.80
2018-05-13T21:28:23.443Z,8.07
2018-05-13T21:30:51.622Z,7.62
2018-05-13T21:33:19.042Z,8.75
2018-05-13T21:35:46.457Z,8.18
2018-05-13T21:38:13.880Z,7.30
2018-05-13T21:40:41.285Z,7.82
2018-05-13T21:43:08.706Z,8.02
2018-05-13T21:45:36.114Z,7.50
2018-05-13T21:48:03.533Z,8.07
2018-05-13T21:50:31.000Z,7.87
2018-05-13T21:52:58.477Z,8.85
2018-05-13T21:55:25.892Z,9.43
2018-05-13T21:57:53.310Z,9.18
2018-05-13T22:00:20.790Z,9.23
2018-05-13T22:02:48.196Z,8.82
2018-05-13T22:05:15.625Z,8.48
2018-05-13T22:07:43.024Z,8.65
2018-05-13T22:10:10.461Z,9.02
2018-05-13T22:12:37.865Z,6.10
2018-05-13T22:15:05.301Z,6.43
2018-05-13T22:17:32.784Z,6.95
2018-05-13T22:20:00.125Z,7.10
2018-05-13T22:22:27.532Z,7.60
2018-05-13T22:24:54.953Z,7.50
2018-05-13T22:27:23.128Z,6.95
2018-05-13T22:29:51.321Z,8.70
2018-05-13T22:32:19.534Z,10.63
2018-05-13T22:34:46.955Z,11.32
2018-05-13T22:37:14.364Z,11.48
2018-05-13T22:39:41.841Z,9.57
2018-05-13T22:42:09.256Z,8.35
2018-05-13T22:44:36.669Z,6.62
2018-05-13T22:47:04.081Z,6.28
2018-05-13T22:49:31.500Z,6.37
2018-05-13T22:51:59.673Z,5.72
2018-05-13T22:54:27.096Z,5.78
2018-05-13T22:56:54.509Z,6.80
2018-05-13T22:59:21.926Z,7.05
2018-05-13T23:01:49.332Z,6.53
2018-05-13T23:04:16.834Z,7.30
2018-05-13T23:06:44.161Z,8.30
2018-05-13T23:09:11.639Z,7.20
2018-05-13T23:11:39.753Z,8.35
2018-05-13T23:14:07.945Z,8.20
2018-05-13T23:16:36.144Z,9.30
2018-05-13T23:19:03.628Z,8.75
2018-05-13T23:21:31.781Z,9.00
2018-05-13T23:23:59.969Z,10.43
2018-05-13T23:26:28.186Z,10.70
2018-05-13T23:28:55.616Z,11.52
2018-05-13T23:31:23.037Z,12.35
2018-05-13T23:33:50.460Z,10.95
2018-05-13T23:36:18.642Z,12.27
2018-05-13T23:38:46.065Z,12.35
2018-05-13T23:41:13.541Z,13.75
2018-05-13T23:43:41.692Z,13.48
2018-05-13T23:46:09.896Z,13.65
2018-05-13T23:48:37.320Z,14.93
2018-05-13T23:51:04.741Z,13.43
2018-05-13T23:53:32.204Z,15.15
2018-05-13T23:56:00.373Z,16.37
2018-05-13T23:58:28.561Z,14.45
